Drake Field Fayetteville US
ICAO: KFYV
IATA: FYV
Category: Medium
Scheduled Services: No

Elevation: 1251 ft
TransAlt. 18000 ft.

Airport Communications:
RAZORBACK APP/DEP:121
ATIS:133.1
CTAF:128
GND:121.8
JONESBORO RDO:122.3
TWR:128
UNICOM:122.95

KFYV Zoom In..

If you have problems with the map follow the link
https://www.worldairports.se/pages/airport.php?
ICAO=KFYV

Runways:

(A) RW 16 length 6005 ft width 100 ft
LOC 111.90 / hdg 164

(B) RW 34 length 6005 ft width 100 ft
LOC 111.90 / hdg 344

Location; KFYV
Day. 16 / Time. 02.53 Zulu
* Altimeter: 30.08
* Temperature: 08° c. 46.4°f.
* Wind from: 210° Speed 09 kn.
Dewpoint: -02° c.
Visibility: 10 Statute Miles.
Clouds: Clear (automated report).

KFYV 160253Z 21009KT 10SM CLR 08/M02 A3008 RMK AO2 SLP190 T00781022 52008


Wind From 210°
Speed 09 kn.

 
 
jpsmedia.com for Web Design worldairports.se 2018   terms of use